Time;durP1;ratioP1;P1;durP2;ratioP2;P2;SDS_P1;SDS_P2;PMS_P1;PMS_P2;Temp;Humidity;BMP_temperature;BMP_pressure;BME280_temperature;BME280_humidity;BME280_pressure;Samples;Min_cycle;Max_cycle;Signal;HPM_P1;HPM_P2
2021/12/27 00:02:22;;;;;;;49.75;26.98;;;1.00;99.90;;;;;;4277923;28;10000543;-71
2021/12/27 00:04:48;;;;;;;47.85;25.38;;;0.90;99.90;;;;;;4963483;28;20695;-71
2021/12/27 00:07:14;;;;;;;54.13;26.67;;;0.90;99.90;;;;;;4958807;28;20052;-71
2021/12/27 00:09:41;;;;;;;52.47;27.52;;;1.00;99.90;;;;;;4955959;28;20451;-71
2021/12/27 00:12:07;;;;;;;50.03;26.77;;;1.00;99.90;;;;;;4961710;28;20039;-71
2021/12/27 00:14:33;;;;;;;54.53;27.83;;;1.00;99.90;;;;;;4964708;28;20042;-71
2021/12/27 00:16:58;;;;;;;50.72;27.10;;;1.00;99.90;;;;;;4962165;28;20027;-72
2021/12/27 00:19:24;;;;;;;53.38;27.90;;;1.00;99.90;;;;;;4962157;28;20953;-71
2021/12/27 00:21:50;;;;;;;50.50;26.52;;;1.00;99.90;;;;;;4958586;28;20031;-72
2021/12/27 00:24:15;;;;;;;51.65;27.08;;;1.00;99.90;;;;;;4956802;28;20033;-72
2021/12/27 00:26:41;;;;;;;54.63;28.35;;;1.00;99.90;;;;;;4961295;28;20031;-72
2021/12/27 00:29:07;;;;;;;54.08;28.05;;;1.00;99.90;;;;;;4958081;28;20113;-71
2021/12/27 00:31:33;;;;;;;52.53;27.70;;;1.00;99.90;;;;;;4962041;28;20574;-71
2021/12/27 00:33:58;;;;;;;54.00;28.42;;;1.10;99.90;;;;;;4962524;28;20479;-71
2021/12/27 00:36:24;;;;;;;50.15;27.27;;;1.10;99.90;;;;;;4967240;28;20041;-71
2021/12/27 00:38:49;;;;;;;50.90;26.05;;;1.10;99.90;;;;;;4963967;28;20043;-72
2021/12/27 00:41:15;;;;;;;52.42;26.60;;;1.10;99.90;;;;;;4966204;28;20062;-71
2021/12/27 00:43:41;;;;;;;51.45;26.95;;;1.10;99.90;;;;;;4966863;28;20030;-73
2021/12/27 00:46:06;;;;;;;49.53;26.77;;;1.10;99.90;;;;;;4967598;28;20031;-72
2021/12/27 00:48:32;;;;;;;46.63;25.15;;;1.00;99.90;;;;;;4964438;28;20145;-72
2021/12/27 00:50:58;;;;;;;49.33;26.38;;;1.00;99.90;;;;;;4959666;28;20552;-71
2021/12/27 00:53:23;;;;;;;52.13;26.20;;;1.00;99.90;;;;;;4955290;28;20035;-71
2021/12/27 00:55:49;;;;;;;51.65;26.38;;;1.00;99.90;;;;;;4965323;28;20038;-71
2021/12/27 00:58:15;;;;;;;50.72;26.27;;;1.10;99.90;;;;;;4962084;28;20041;-71
2021/12/27 01:00:40;;;;;;;49.45;26.08;;;1.10;99.90;;;;;;4963192;28;20125;-72
2021/12/27 01:03:06;;;;;;;48.42;26.55;;;1.10;99.90;;;;;;4965511;28;20019;-72
2021/12/27 01:05:32;;;;;;;50.08;26.00;;;1.20;99.90;;;;;;4961697;28;20427;-71
2021/12/27 01:07:57;;;;;;;49.70;27.33;;;1.20;99.90;;;;;;4966980;28;20058;-71
2021/12/27 01:10:55;;;;;;;49.13;26.02;;;1.20;99.90;;;;;;4963264;28;20380;-72
2021/12/27 01:18:32;;;;;;;49.53;25.83;;;1.20;99.90;;;;;;4963391;28;20026;-71
2021/12/27 01:20:57;;;;;;;47.70;26.27;;;1.20;99.90;;;;;;4958155;28;20460;-72
2021/12/27 01:23:23;;;;;;;51.40;27.13;;;1.30;99.90;;;;;;4961476;28;20408;-71
2021/12/27 01:25:49;;;;;;;48.65;26.55;;;1.20;99.90;;;;;;4965932;28;20034;-72
2021/12/27 01:28:16;;;;;;;46.72;24.25;;;1.20;99.90;;;;;;4962684;28;20057;-72
2021/12/27 01:30:47;;;;;;;46.63;25.02;;;1.20;99.90;;;;;;4959262;28;20475;-71
2021/12/27 01:33:14;;;;;;;48.60;25.75;;;1.20;99.90;;;;;;4957000;28;20026;-72
2021/12/27 01:35:40;;;;;;;48.55;25.75;;;1.20;99.90;;;;;;4964239;28;20053;-72
2021/12/27 01:38:05;;;;;;;56.55;27.67;;;1.20;99.90;;;;;;4959172;28;20121;-71
2021/12/27 01:40:32;;;;;;;47.97;25.98;;;1.20;99.90;;;;;;4963354;28;20118;-71
2021/12/27 01:43:09;;;;;;;51.40;26.75;;;1.20;99.90;;;;;;4961185;28;20035;-71
2021/12/27 01:45:41;;;;;;;47.83;25.80;;;1.20;99.90;;;;;;4966784;28;20049;-71
2021/12/27 01:48:08;;;;;;;48.80;26.07;;;1.30;99.90;;;;;;4963203;28;20093;-71
2021/12/27 01:50:36;;;;;;;51.63;25.45;;;1.30;99.90;;;;;;4952920;28;20116;-71
2021/12/27 01:53:02;;;;;;;54.08;26.83;;;1.30;99.90;;;;;;4963850;28;20035;-71
2021/12/27 01:55:28;;;;;;;50.92;26.58;;;1.20;99.90;;;;;;4957381;28;20109;-71
2021/12/27 01:57:54;;;;;;;51.13;26.00;;;1.20;99.90;;;;;;4953744;28;20770;-71
2021/12/27 02:00:19;;;;;;;50.10;25.23;;;1.20;99.90;;;;;;4961078;28;20121;-72
2021/12/27 02:02:46;;;;;;;48.38;26.15;;;1.20;99.90;;;;;;4959229;28;20058;-71
2021/12/27 02:05:13;;;;;;;48.65;26.13;;;1.20;99.90;;;;;;4958092;28;20039;-71
2021/12/27 02:07:39;;;;;;;44.88;25.58;;;1.20;99.90;;;;;;4962041;28;20057;-71
2021/12/27 02:10:05;;;;;;;48.25;25.83;;;1.20;99.90;;;;;;4953761;28;20031;-71
2021/12/27 02:12:31;;;;;;;47.33;24.80;;;1.20;99.90;;;;;;4954236;28;20040;-71
2021/12/27 02:14:57;;;;;;;51.05;25.83;;;1.20;99.90;;;;;;4957888;28;20083;-71
2021/12/27 02:17:24;;;;;;;51.47;27.25;;;1.20;99.90;;;;;;4959728;28;20522;-71
2021/12/27 02:19:51;;;;;;;50.10;25.65;;;1.20;99.90;;;;;;4951799;28;20407;-72
2021/12/27 02:22:17;;;;;;;51.85;27.00;;;1.20;99.90;;;;;;4952572;28;20058;-72
2021/12/27 02:24:42;;;;;;;46.53;24.85;;;1.30;99.90;;;;;;4957150;28;20544;-72
2021/12/27 02:27:12;;;;;;;47.83;24.90;;;1.20;99.90;;;;;;4956729;28;20483;-71
2021/12/27 02:29:37;;;;;;;47.97;24.90;;;1.20;99.90;;;;;;4952541;28;20034;-72
2021/12/27 02:32:03;;;;;;;45.40;24.80;;;1.20;99.90;;;;;;4953714;28;20054;-71
2021/12/27 02:34:29;;;;;;;45.25;23.83;;;1.30;99.90;;;;;;4956822;28;20019;-72
2021/12/27 02:36:55;;;;;;;45.75;25.27;;;1.20;99.90;;;;;;4957164;28;20518;-71
2021/12/27 02:39:20;;;;;;;47.40;24.85;;;1.20;99.90;;;;;;4951755;28;20023;-72
2021/12/27 02:41:46;;;;;;;46.05;24.92;;;1.20;99.90;;;;;;4955980;28;20594;-72
2021/12/27 02:44:12;;;;;;;46.95;23.75;;;1.20;99.90;;;;;;4954727;28;20093;-72
2021/12/27 02:46:37;;;;;;;43.80;24.48;;;1.20;99.90;;;;;;4954537;28;20510;-71
2021/12/27 02:49:04;;;;;;;47.58;24.33;;;1.20;99.90;;;;;;4959537;28;23491;-72
2021/12/27 02:51:31;;;;;;;42.80;23.30;;;1.20;99.90;;;;;;4956639;28;20051;-71
2021/12/27 02:53:56;;;;;;;48.88;24.67;;;1.30;99.90;;;;;;4957551;28;20030;-71
2021/12/27 02:56:22;;;;;;;42.97;23.98;;;1.30;99.90;;;;;;4957560;28;20043;-71
2021/12/27 02:58:49;;;;;;;42.30;24.30;;;1.30;99.90;;;;;;4958815;28;20033;-71
2021/12/27 03:01:22;;;;;;;43.95;24.55;;;1.30;99.90;;;;;;4951925;28;20074;-71
2021/12/27 03:03:48;;;;;;;;;;;1.30;99.90;;;;;;4953065;28;20043;-71
2021/12/27 03:06:13;;;;;;;43.22;22.70;;;1.20;99.90;;;;;;4949649;28;19933;-71
2021/12/27 03:08:41;;;;;;;43.22;23.65;;;1.20;99.90;;;;;;4958430;28;20058;-71
2021/12/27 03:11:07;;;;;;;42.97;23.17;;;1.10;99.90;;;;;;4954174;28;20090;-72
2021/12/27 03:13:38;;;;;;;47.83;25.40;;;1.10;99.90;;;;;;4959738;28;20034;-71
2021/12/27 03:16:14;;;;;;;43.13;22.45;;;1.00;99.90;;;;;;4960077;28;20395;-71
2021/12/27 03:18:43;;;;;;;43.00;23.88;;;1.00;99.90;;;;;;4960195;28;20038;-71
2021/12/27 03:21:09;;;;;;;42.95;23.85;;;1.00;99.90;;;;;;4958242;28;20034;-71
2021/12/27 03:23:36;;;;;;;43.58;23.58;;;0.90;99.90;;;;;;4952373;28;20031;-72
2021/12/27 03:26:03;;;;;;;42.67;24.05;;;1.00;99.90;;;;;;4959851;28;20019;-71
2021/12/27 03:28:30;;;;;;;44.80;24.13;;;0.90;99.90;;;;;;4967316;28;20482;-71
2021/12/27 03:30:57;;;;;;;42.40;23.10;;;0.90;99.90;;;;;;4954624;28;20037;-71
2021/12/27 03:33:23;;;;;;;40.45;22.45;;;0.90;99.90;;;;;;4955692;28;20019;-71
2021/12/27 03:38:52;;;;;;;44.78;23.27;;;1.00;99.90;;;;;;4950294;28;20027;-71
2021/12/27 03:41:21;;;;;;;42.45;23.40;;;1.00;99.90;;;;;;4959066;28;20081;-71
2021/12/27 03:43:47;;;;;;;40.30;22.33;;;1.00;99.90;;;;;;4956439;28;20035;-71
2021/12/27 03:46:13;;;;;;;42.45;23.38;;;1.00;99.90;;;;;;4962344;28;20028;-72
2021/12/27 03:48:39;;;;;;;45.40;24.50;;;1.00;99.90;;;;;;4964308;28;20149;-71
2021/12/27 03:51:06;;;;;;;46.85;24.90;;;1.00;99.90;;;;;;4960539;28;20030;-71
2021/12/27 03:53:33;;;;;;;42.85;23.55;;;1.00;99.90;;;;;;4963680;28;20604;-71
2021/12/27 03:55:58;;;;;;;45.20;24.70;;;1.00;99.90;;;;;;4957423;28;20023;-71
2021/12/27 04:03:20;;;;;;;43.13;23.83;;;1.20;99.90;;;;;;4963812;28;20031;-71
2021/12/27 04:05:48;;;;;;;46.13;24.15;;;1.30;99.90;;;;;;4956656;28;20469;-71
2021/12/27 04:08:17;;;;;;;42.67;23.63;;;1.30;99.90;;;;;;4959816;28;20031;-71
2021/12/27 04:10:45;;;;;;;42.38;23.77;;;1.40;99.90;;;;;;4956544;28;20066;-71
2021/12/27 04:13:12;;;;;;;42.10;24.02;;;1.40;99.90;;;;;;4965067;28;20027;-71
2021/12/27 04:15:39;;;;;;;42.97;22.90;;;1.40;99.90;;;;;;4961394;28;20118;-71
2021/12/27 04:18:06;;;;;;;42.20;22.70;;;1.50;99.90;;;;;;4964521;28;20042;-71
2021/12/27 04:20:32;;;;;;;42.55;23.02;;;1.50;99.90;;;;;;4958171;28;20114;-71
2021/12/27 04:22:58;;;;;;;41.85;22.65;;;1.50;99.90;;;;;;4955684;28;20114;-71
2021/12/27 04:25:24;;;;;;;40.17;21.27;;;1.50;99.90;;;;;;4952468;28;20503;-71
2021/12/27 04:27:50;;;;;;;39.20;22.77;;;1.50;99.90;;;;;;4958634;28;20107;-69
2021/12/27 04:30:18;;;;;;;42.50;23.38;;;1.50;99.90;;;;;;4956062;28;20129;-70
2021/12/27 04:32:44;;;;;;;43.22;23.08;;;1.50;99.90;;;;;;4957703;28;20030;-70
2021/12/27 04:35:11;;;;;;;42.80;22.95;;;1.50;99.90;;;;;;4951556;28;20042;-70
2021/12/27 04:37:36;;;;;;;39.95;22.50;;;1.50;99.90;;;;;;4956965;28;20035;-70
2021/12/27 04:40:06;;;;;;;43.65;22.55;;;1.50;99.90;;;;;;4951976;28;20406;-70
2021/12/27 04:42:33;;;;;;;37.63;21.50;;;1.50;99.90;;;;;;4963465;28;20030;-70
2021/12/27 04:45:00;;;;;;;36.95;21.30;;;1.60;99.90;;;;;;4970941;28;20035;-69
2021/12/27 04:47:26;;;;;;;39.28;21.95;;;1.60;99.90;;;;;;4967645;28;20042;-70
2021/12/27 04:49:53;;;;;;;38.42;21.90;;;1.60;99.90;;;;;;4956064;28;20031;-70
2021/12/27 04:52:19;;;;;;;38.20;20.88;;;1.60;99.90;;;;;;4959574;28;20023;-70
2021/12/27 04:54:45;;;;;;;38.67;21.45;;;1.60;99.90;;;;;;4957872;28;20043;-70
2021/12/27 04:57:11;;;;;;;36.83;20.95;;;1.50;99.90;;;;;;4954074;28;20038;-71
2021/12/27 04:59:36;;;;;;;35.88;20.63;;;1.50;99.90;;;;;;4959805;28;20531;-70
2021/12/27 05:02:03;;;;;;;37.08;21.65;;;1.40;99.90;;;;;;4962337;28;20034;-71
2021/12/27 05:04:29;;;;;;;34.42;20.20;;;1.40;99.90;;;;;;4951126;28;20175;-70
2021/12/27 05:06:55;;;;;;;36.45;20.30;;;1.40;99.90;;;;;;4956449;28;20074;-71
2021/12/27 05:09:20;;;;;;;36.13;21.00;;;1.30;99.90;;;;;;4956439;28;20054;-70
2021/12/27 05:11:46;;;;;;;36.45;20.25;;;1.20;99.90;;;;;;4956485;28;20019;-71
2021/12/27 05:14:13;;;;;;;35.33;20.08;;;1.20;99.90;;;;;;4959949;28;20035;-70
2021/12/27 05:16:39;;;;;;;34.80;20.05;;;1.10;99.90;;;;;;4961913;28;20041;-70
2021/12/27 05:19:05;;;;;;;38.00;21.08;;;1.10;99.90;;;;;;4956851;28;20043;-71
2021/12/27 05:21:31;;;;;;;36.42;20.50;;;1.10;99.90;;;;;;4964238;28;20031;-70
2021/12/27 05:23:56;;;;;;;40.90;22.33;;;1.10;99.90;;;;;;4967799;28;20599;-70
2021/12/27 05:26:23;;;;;;;36.90;20.77;;;1.10;99.90;;;;;;4958868;28;20027;-70
2021/12/27 05:28:48;;;;;;;37.88;21.25;;;1.00;99.90;;;;;;4961346;28;20027;-70
2021/12/27 05:31:15;;;;;;;36.53;20.55;;;1.00;99.90;;;;;;4965464;28;20027;-70
2021/12/27 05:33:40;;;;;;;38.55;21.38;;;1.00;99.90;;;;;;4958329;28;20043;-70
2021/12/27 05:36:06;;;;;;;39.38;22.25;;;1.10;99.90;;;;;;4963807;28;20042;-70
2021/12/27 05:38:32;;;;;;;37.50;20.88;;;1.00;99.90;;;;;;4958828;28;20026;-70
2021/12/27 05:40:58;;;;;;;36.63;20.23;;;1.10;99.90;;;;;;4963218;28;20082;-70
2021/12/27 05:43:24;;;;;;;39.03;21.35;;;1.00;99.90;;;;;;4961918;28;20031;-70
2021/12/27 05:45:50;;;;;;;35.85;20.27;;;1.10;99.90;;;;;;4955947;28;20031;-70
2021/12/27 05:48:16;;;;;;;36.00;20.13;;;1.10;99.90;;;;;;4960148;28;20031;-71
2021/12/27 05:50:43;;;;;;;34.90;20.48;;;1.10;99.90;;;;;;4961732;28;20395;-71
2021/12/27 05:53:09;;;;;;;34.35;20.05;;;1.10;99.90;;;;;;4957788;28;20031;-71
2021/12/27 05:55:34;;;;;;;35.60;19.95;;;1.10;99.90;;;;;;4960869;28;20041;-70
2021/12/27 05:58:01;;;;;;;34.33;19.92;;;1.10;99.90;;;;;;4957865;28;20042;-70
2021/12/27 06:00:28;;;;;;;39.45;21.45;;;1.10;99.90;;;;;;4964851;28;20035;-70
2021/12/27 06:02:54;;;;;;;38.28;21.38;;;1.20;99.90;;;;;;4952835;28;20085;-71
2021/12/27 06:05:22;;;;;;;37.38;20.95;;;1.20;99.90;;;;;;4955139;28;20062;-71
2021/12/27 06:07:47;;;;;;;36.75;20.65;;;1.30;99.90;;;;;;4962061;28;20047;-71
2021/12/27 06:10:13;;;;;;;38.22;21.15;;;1.30;99.90;;;;;;4963175;28;20708;-70
2021/12/27 06:12:40;;;;;;;36.05;20.88;;;1.40;99.90;;;;;;4958679;28;20439;-70
2021/12/27 06:15:07;;;;;;;37.50;20.85;;;1.30;99.90;;;;;;4959859;28;20045;-70
2021/12/27 06:17:33;;;;;;;37.45;20.33;;;1.30;99.90;;;;;;4954493;28;20418;-71
2021/12/27 06:20:04;;;;;;;35.22;20.98;;;1.30;99.90;;;;;;4963793;28;20038;-70
2021/12/27 06:22:30;;;;;;;35.10;20.17;;;1.20;99.90;;;;;;4965283;28;20038;-71
2021/12/27 06:24:58;;;;;;;35.95;20.40;;;1.20;99.90;;;;;;4968290;28;20031;-71
2021/12/27 06:27:24;;;;;;;35.55;19.92;;;1.20;99.90;;;;;;4961510;28;20031;-71
2021/12/27 06:29:50;;;;;;;33.35;19.33;;;1.10;99.90;;;;;;4970106;28;20025;-71
2021/12/27 06:32:16;;;;;;;32.97;18.98;;;1.10;99.90;;;;;;4960029;28;20045;-71
2021/12/27 06:34:41;;;;;;;36.15;20.40;;;1.20;99.90;;;;;;4954696;28;20050;-71
2021/12/27 06:37:07;;;;;;;36.78;20.90;;;1.10;99.90;;;;;;4958329;28;20692;-70
2021/12/27 06:39:33;;;;;;;36.05;19.95;;;1.20;99.90;;;;;;4966447;28;20428;-71
2021/12/27 06:41:59;;;;;;;35.05;20.20;;;1.20;99.90;;;;;;4960419;28;20082;-70
2021/12/27 06:44:25;;;;;;;34.20;19.33;;;1.20;99.90;;;;;;4962663;28;20113;-71
2021/12/27 06:46:52;;;;;;;34.20;19.73;;;1.20;99.90;;;;;;4961819;28;20066;-70
2021/12/27 06:49:18;;;;;;;31.83;18.40;;;1.10;99.90;;;;;;4958408;28;20081;-70
2021/12/27 06:51:43;;;;;;;33.15;19.50;;;1.10;99.90;;;;;;4949040;28;20031;-70
2021/12/27 06:54:09;;;;;;;36.15;20.35;;;1.10;99.90;;;;;;4959086;28;20062;-70
2021/12/27 06:56:35;;;;;;;33.72;19.90;;;1.20;99.90;;;;;;4963201;28;20030;-70
2021/12/27 06:59:02;;;;;;;34.92;20.02;;;1.10;99.90;;;;;;4960389;28;20664;-70
2021/12/27 07:01:28;;;;;;;34.85;19.55;;;1.20;99.90;;;;;;4959741;28;20037;-70
2021/12/27 07:03:54;;;;;;;34.05;19.50;;;1.20;99.90;;;;;;4959394;28;20043;-71
2021/12/27 07:06:20;;;;;;;34.75;19.33;;;1.20;99.90;;;;;;4960686;28;20043;-71
2021/12/27 07:08:47;;;;;;;34.55;19.30;;;1.20;99.90;;;;;;4962994;28;20039;-71
2021/12/27 07:11:13;;;;;;;33.58;19.52;;;1.20;99.90;;;;;;4958336;28;20030;-71
2021/12/27 07:13:38;;;;;;;36.17;20.08;;;1.20;99.90;;;;;;4961175;28;20034;-71
2021/12/27 07:16:05;;;;;;;35.33;19.63;;;1.20;99.90;;;;;;4966967;28;20434;-71
2021/12/27 07:18:31;;;;;;;37.97;21.05;;;1.20;99.90;;;;;;4959271;28;20037;-70
2021/12/27 07:20:56;;;;;;;38.25;21.33;;;1.20;99.90;;;;;;4959451;28;20520;-71
2021/12/27 07:23:22;;;;;;;35.10;20.02;;;;;;;;;;4961113;28;20594;-71
2021/12/27 07:25:49;;;;;;;32.65;18.05;;;1.40;99.90;;;;;;4962332;28;20176;-72
2021/12/27 07:28:15;;;;;;;31.88;17.80;;;1.50;99.90;;;;;;4962424;28;20027;-70
2021/12/27 07:30:41;;;;;;;27.27;16.58;;;1.50;99.90;;;;;;4965075;28;20086;-71
2021/12/27 07:33:07;;;;;;;29.85;17.55;;;1.40;99.90;;;;;;4973520;28;20023;-70
2021/12/27 07:35:32;;;;;;;28.15;17.02;;;1.40;99.90;;;;;;4964133;28;20505;-70
2021/12/27 07:38:00;;;;;;;31.63;17.92;;;1.40;99.90;;;;;;4964353;28;20721;-71
2021/12/27 07:40:25;;;;;;;34.40;18.02;;;1.30;99.90;;;;;;4961453;28;20107;-72
2021/12/27 07:42:51;;;;;;;31.50;18.30;;;1.30;99.90;;;;;;4966489;28;20034;-72
2021/12/27 07:45:17;;;;;;;30.25;19.02;;;1.30;99.90;;;;;;4966859;28;20027;-71
2021/12/27 07:47:42;;;;;;;30.02;17.52;;;1.20;99.90;;;;;;4966972;28;20050;-71
2021/12/27 07:50:08;;;;;;;32.15;18.33;;;1.20;99.90;;;;;;4966982;28;20542;-72
2021/12/27 07:52:34;;;;;;;29.63;17.38;;;1.20;99.90;;;;;;4966566;28;20051;-72
2021/12/27 07:54:59;;;;;;;28.02;16.73;;;1.20;99.90;;;;;;4961291;28;20037;-72
2021/12/27 07:57:25;;;;;;;30.50;17.15;;;1.20;99.90;;;;;;4966411;28;20550;-72
2021/12/27 07:59:51;;;;;;;32.33;18.48;;;1.20;99.90;;;;;;4966777;28;20071;-72
2021/12/27 08:02:17;;;;;;;39.45;20.50;;;1.20;99.90;;;;;;4966659;28;20038;-71
2021/12/27 08:04:43;;;;;;;33.53;18.65;;;1.20;99.90;;;;;;4966993;28;20027;-71
2021/12/27 08:07:08;;;;;;;36.88;20.15;;;1.20;99.90;;;;;;4966656;28;20067;-72
2021/12/27 08:09:34;;;;;;;37.00;20.92;;;1.20;99.90;;;;;;4966211;28;20090;-72
2021/12/27 08:12:00;;;;;;;36.80;21.30;;;1.30;99.90;;;;;;4963235;28;20034;-72
2021/12/27 08:14:26;;;;;;;38.33;20.95;;;1.20;99.90;;;;;;4963752;28;20027;-71
2021/12/27 08:16:51;;;;;;;37.33;21.70;;;1.30;99.90;;;;;;4958993;28;20404;-71
2021/12/27 08:19:17;;;;;;;36.70;20.77;;;1.30;99.90;;;;;;4970748;28;20030;-71
2021/12/27 08:21:43;;;;;;;38.05;22.35;;;1.30;99.90;;;;;;4964080;28;20058;-70
2021/12/27 08:24:09;;;;;;;36.00;20.60;;;1.30;99.90;;;;;;4966910;28;20035;-71
2021/12/27 08:26:35;;;;;;;36.40;20.73;;;1.30;99.90;;;;;;4959707;28;20097;-71
2021/12/27 08:29:03;;;;;;;36.15;19.50;;;1.30;99.90;;;;;;4949833;28;20251;-71
2021/12/27 08:31:29;;;;;;;33.97;20.45;;;1.30;99.90;;;;;;4960559;28;20107;-70
2021/12/27 08:33:55;;;;;;;33.40;20.27;;;1.30;99.90;;;;;;4960144;28;20648;-70
2021/12/27 08:36:21;;;;;;;37.78;21.38;;;1.40;99.90;;;;;;4954714;28;20253;-70
2021/12/27 08:38:48;;;;;;;40.10;23.40;;;1.40;99.90;;;;;;4961457;28;20039;-71
2021/12/27 08:41:15;;;;;;;43.08;24.73;;;1.40;99.90;;;;;;4962625;28;20039;-71
2021/12/27 08:43:41;;;;;;;43.50;25.63;;;1.40;99.90;;;;;;4964023;28;20039;-71
2021/12/27 08:46:07;;;;;;;39.33;22.77;;;1.50;99.90;;;;;;4964309;28;20669;-70
2021/12/27 08:48:33;;;;;;;39.95;21.55;;;1.40;99.90;;;;;;4968033;28;20058;-71
2021/12/27 08:50:59;;;;;;;36.95;20.02;;;1.50;99.90;;;;;;4961261;28;20126;-71
2021/12/27 08:53:25;;;;;;;38.47;20.35;;;1.50;99.90;;;;;;4955842;28;20110;-71
2021/12/27 08:55:54;;;;;;;34.03;18.95;;;1.50;99.90;;;;;;4965820;28;20074;-73
2021/12/27 08:58:20;;;;;;;31.02;18.38;;;1.50;99.90;;;;;;4962489;28;20035;-71
2021/12/27 09:00:46;;;;;;;30.38;17.60;;;1.50;99.90;;;;;;4961577;28;20035;-71
2021/12/27 09:03:11;;;;;;;32.15;17.73;;;1.50;99.90;;;;;;4963755;28;20027;-71
2021/12/27 09:05:38;;;;;;;30.92;18.83;;;1.50;99.90;;;;;;4956304;28;20027;-71
2021/12/27 09:08:04;;;;;;;35.55;18.15;;;1.60;99.90;;;;;;4956089;28;20130;-71
2021/12/27 09:10:30;;;;;;;27.80;16.52;;;1.60;99.90;;;;;;4950846;28;20118;-70
2021/12/27 09:12:55;;;;;;;34.55;18.60;;;1.60;99.90;;;;;;4956634;28;20047;-71
2021/12/27 09:15:21;;;;;;;30.70;18.65;;;1.60;99.90;;;;;;4963656;28;20046;-70
2021/12/27 09:17:47;;;;;;;33.75;18.60;;;1.60;99.90;;;;;;4954159;28;20038;-72
2021/12/27 09:20:13;;;;;;;38.78;21.10;;;1.70;99.90;;;;;;4961267;28;20034;-72
2021/12/27 09:22:39;;;;;;;34.65;19.33;;;1.70;99.90;;;;;;4959473;28;20483;-72
2021/12/27 09:25:05;;;;;;;31.95;17.45;;;1.70;99.90;;;;;;4962160;28;20097;-72
2021/12/27 09:27:31;;;;;;;29.20;16.85;;;1.80;99.90;;;;;;4965256;28;20034;-72
2021/12/27 09:29:57;;;;;;;31.70;17.23;;;1.80;99.90;;;;;;4961264;28;20041;-70
2021/12/27 09:32:22;;;;;;;28.05;16.85;;;1.80;99.90;;;;;;4952623;28;20034;-70
2021/12/27 09:34:48;;;;;;;29.10;17.40;;;1.90;99.90;;;;;;4963822;28;20034;-71
2021/12/27 09:37:14;;;;;;;29.40;17.15;;;1.90;99.90;;;;;;4963749;28;20101;-70
2021/12/27 09:39:40;;;;;;;28.35;16.45;;;1.90;99.90;;;;;;4965100;28;20039;-70
2021/12/27 09:42:05;;;;;;;29.08;15.85;;;1.80;99.90;;;;;;4955418;28;20085;-72
2021/12/27 09:44:31;;;;;;;30.42;17.20;;;1.80;99.90;;;;;;4959961;28;20030;-70
2021/12/27 09:46:57;;;;;;;29.92;16.92;;;1.80;99.90;;;;;;4963929;28;20523;-71
2021/12/27 09:49:29;;;;;;;29.02;16.10;;;1.80;99.90;;;;;;4955906;28;20034;-70
2021/12/27 09:51:58;;;;;;;29.85;16.27;;;1.80;99.90;;;;;;4964798;28;20050;-71
2021/12/27 09:54:27;;;;;;;28.83;16.23;;;1.80;99.90;;;;;;4957097;28;20035;-70
2021/12/27 09:56:54;;;;;;;26.48;16.10;;;1.80;99.90;;;;;;4959320;28;20098;-71
2021/12/27 09:59:20;;;;;;;31.55;16.77;;;1.80;99.90;;;;;;4956989;28;20551;-71
2021/12/27 10:01:46;;;;;;;34.42;19.23;;;1.80;99.90;;;;;;4954600;28;20082;-71
2021/12/27 10:04:12;;;;;;;31.58;18.95;;;1.80;99.90;;;;;;4963918;28;20145;-70
2021/12/27 10:06:37;;;;;;;32.63;19.33;;;1.80;99.90;;;;;;4956590;28;20543;-71
2021/12/27 10:09:05;;;;;;;38.22;20.90;;;1.90;99.90;;;;;;4963876;28;20031;-70
2021/12/27 10:11:37;;;;;;;36.53;20.15;;;1.90;99.90;;;;;;4957909;28;20470;-71
2021/12/27 10:14:18;;;;;;;36.45;20.38;;;1.90;99.90;;;;;;4962364;28;20122;-70
2021/12/27 10:17:03;;;;;;;43.10;22.40;;;1.90;99.90;;;;;;4960007;28;20039;-70
2021/12/27 10:19:29;;;;;;;42.22;23.27;;;1.90;99.90;;;;;;4960971;28;20027;-71
2021/12/27 10:21:55;;;;;;;39.35;23.40;;;1.90;99.90;;;;;;4962375;28;20691;-70
2021/12/27 10:24:27;;;;;;;40.83;23.38;;;1.90;99.90;;;;;;4959755;28;20043;-71
2021/12/27 10:26:54;;;;;;;36.90;21.73;;;1.90;99.90;;;;;;4960663;28;20372;-70
2021/12/27 10:29:31;;;;;;;39.78;22.50;;;1.90;99.90;;;;;;4963366;28;20058;-71
2021/12/27 10:32:16;;;;;;;42.47;23.70;;;1.90;99.90;;;;;;4962816;28;20114;-71
2021/12/27 10:34:48;;;;;;;41.53;23.23;;;2.00;99.90;;;;;;4955480;28;20039;-70
2021/12/27 10:37:29;;;;;;;37.17;21.13;;;2.00;99.90;;;;;;4959420;28;20482;-70
2021/12/27 10:39:54;;;;;;;43.40;22.80;;;2.00;99.90;;;;;;4958420;28;20031;-71
2021/12/27 10:42:21;;;;;;;42.33;22.25;;;2.00;99.90;;;;;;4965669;28;20034;-71
2021/12/27 10:44:49;;;;;;;40.00;22.27;;;2.10;99.90;;;;;;4967736;28;20035;-71
2021/12/27 10:47:32;;;;;;;40.10;22.85;;;2.10;99.90;;;;;;4959055;28;20042;-71
2021/12/27 10:50:10;;;;;;;39.85;22.00;;;2.10;99.90;;;;;;4959129;28;20108;-71
2021/12/27 10:52:45;;;;;;;39.72;22.27;;;2.20;99.90;;;;;;4955330;28;20114;-71
2021/12/27 10:55:13;;;;;;;46.47;23.83;;;2.20;99.90;;;;;;4960259;28;20499;-71
2021/12/27 10:57:38;;;;;;;47.97;23.75;;;2.30;99.90;;;;;;4957561;28;20031;-72
2021/12/27 11:00:23;;;;;;;41.30;21.58;;;2.30;99.90;;;;;;4959647;28;20127;-71
2021/12/27 11:02:48;;;;;;;38.40;21.75;;;2.30;99.90;;;;;;4957912;28;20109;-71
2021/12/27 11:05:16;;;;;;;38.17;21.15;;;2.40;99.90;;;;;;4956455;28;20545;-70
2021/12/27 11:07:43;;;;;;;41.00;21.50;;;2.40;99.90;;;;;;4960102;28;20054;-71
2021/12/27 11:10:09;;;;;;;44.25;21.58;;;2.40;99.90;;;;;;4960887;28;20037;-71
2021/12/27 11:12:35;;;;;;;38.33;21.42;;;2.50;99.90;;;;;;4960656;28;20053;-71
2021/12/27 11:15:01;;;;;;;39.47;21.40;;;2.60;99.90;;;;;;4963391;28;20566;-71
2021/12/27 11:17:28;;;;;;;42.40;22.02;;;2.60;99.90;;;;;;4959047;28;20034;-71
2021/12/27 11:19:53;;;;;;;40.08;21.45;;;2.50;99.90;;;;;;4957689;28;20116;-70
2021/12/27 11:22:19;;;;;;;37.25;20.63;;;2.50;99.90;;;;;;4962103;28;20027;-71
2021/12/27 11:24:45;;;;;;;40.58;20.60;;;2.50;99.90;;;;;;4959590;28;20038;-71
2021/12/27 11:27:14;;;;;;;37.53;20.05;;;2.50;99.90;;;;;;4959829;28;20392;-71
2021/12/27 11:29:40;;;;;;;39.35;21.42;;;2.50;99.90;;;;;;4958061;28;20033;-70
2021/12/27 11:32:16;;;;;;;38.38;21.42;;;2.50;99.90;;;;;;4962147;28;20611;-72
2021/12/27 11:34:56;;;;;;;38.65;19.90;;;2.60;99.90;;;;;;4947690;28;20085;-71
2021/12/27 11:37:34;;;;;;;35.92;20.50;;;2.60;99.90;;;;;;4959442;28;20075;-70
2021/12/27 11:40:06;;;;;;;38.45;20.23;;;2.70;99.90;;;;;;4954908;28;20062;-71
2021/12/27 11:42:55;;;;;;;35.63;19.63;;;2.60;99.90;;;;;;4964452;28;20031;-71
2021/12/27 11:45:36;;;;;;;34.45;20.13;;;2.60;99.90;;;;;;4961086;28;20474;-71
2021/12/27 11:48:16;;;;;;;35.22;18.88;;;2.60;99.90;;;;;;4963423;28;20078;-71
2021/12/27 11:51:03;;;;;;;36.85;19.63;;;2.60;99.90;;;;;;4957447;28;20038;-71
2021/12/27 11:53:45;;;;;;;45.55;21.77;;;2.70;99.90;;;;;;4967086;28;20157;-71
2021/12/27 11:56:35;;;;;;;44.90;22.15;;;2.60;99.90;;;;;;4962740;28;20038;-70
2021/12/27 11:59:01;;;;;;;40.05;21.17;;;2.70;99.90;;;;;;4962895;28;20041;-71
2021/12/27 12:01:27;;;;;;;37.47;19.48;;;2.70;99.90;;;;;;4963696;28;20125;-71
2021/12/27 12:03:57;;;;;;;40.58;19.73;;;2.70;99.90;;;;;;4959285;28;20398;-70
2021/12/27 12:06:43;;;;;;;39.63;20.60;;;2.70;99.90;;;;;;4962282;28;20059;-71
2021/12/27 12:09:19;;;;;;;39.35;20.50;;;2.90;99.90;;;;;;4964590;28;20035;-72
2021/12/27 12:11:58;;;;;;;36.88;19.20;;;2.90;99.90;;;;;;4968226;28;20498;-73
2021/12/27 12:14:29;;;;;;;35.97;18.52;;;3.00;99.90;;;;;;4972042;28;20129;-73
2021/12/27 12:16:57;;;;;;;36.90;18.90;;;3.00;99.90;;;;;;4970259;28;20023;-73
2021/12/27 12:19:45;;;;;;;34.22;17.38;;;3.10;99.90;;;;;;4971009;28;20035;-73
2021/12/27 12:22:33;;;;;;;43.35;21.13;;;3.00;99.90;;;;;;4970736;28;20042;-73
2021/12/27 12:25:21;;;;;;;33.08;19.13;;;3.00;99.90;;;;;;4971003;28;20480;-73
2021/12/27 12:28:06;;;;;;;28.73;16.48;;;2.90;99.90;;;;;;4970475;28;20038;-73
2021/12/27 12:30:38;;;;;;;25.35;15.02;;;2.90;99.90;;;;;;4968037;28;20099;-73
2021/12/27 12:33:09;;;;;;;26.13;15.83;;;2.90;99.90;;;;;;4970342;28;20387;-73
2021/12/27 12:35:44;;;;;;;25.35;16.42;;;2.90;99.90;;;;;;4970474;28;20031;-73
2021/12/27 12:38:18;;;;;;;29.27;16.75;;;2.90;99.90;;;;;;4969202;28;20045;-74
2021/12/27 12:40:57;;;;;;;28.20;16.38;;;2.90;99.90;;;;;;4969598;28;20034;-73
2021/12/27 12:43:32;;;;;;;28.10;15.90;;;2.80;99.90;;;;;;4964387;28;20248;-73
2021/12/27 12:46:08;;;;;;;27.15;16.25;;;2.90;99.90;;;;;;4969579;28;20479;-73
2021/12/27 12:48:34;;;;;;;30.02;15.43;;;2.90;99.90;;;;;;4976921;28;20035;-74
2021/12/27 12:51:00;;;;;;;27.90;15.82;;;2.80;99.90;;;;;;4981958;28;20539;-73
2021/12/27 12:53:31;;;;;;;27.65;16.13;;;2.90;99.90;;;;;;4953297;28;20035;-73
2021/12/27 12:56:05;;;;;;;26.67;16.17;;;2.90;99.90;;;;;;4969546;28;20194;-73